Time;durP1;ratioP1;P1;durP2;ratioP2;P2;SDS_P1;SDS_P2;PMS_P1;PMS_P2;Temp;Humidity;BMP_temperature;BMP_pressure;BME280_temperature;BME280_humidity;BME280_pressure;Samples;Min_cycle;Max_cycle;Signal;HPM_P1;HPM_P2
2023/10/03 00:00:35;;;;;;;35.67;13.65;;;;;;;;;;4955677;28;20130;-54
2023/10/03 00:03:04;;;;;;;33.08;14.20;;;;;;;;;;4955488;28;20115;-56
2023/10/03 00:05:31;;;;;;;33.22;13.27;;;;;;;;;;4955575;28;20480;-52
2023/10/03 00:08:04;;;;;;;36.00;14.82;;;;;;;;;;4973324;28;20048;-54
2023/10/03 00:10:31;;;;;;;32.80;13.65;;;;;;;;;;4966117;28;20047;-55
2023/10/03 00:12:59;;;;;;;33.42;14.73;;;;;;;;;;4970364;28;20079;-52
2023/10/03 00:15:28;;;;;;;37.15;14.95;;;;;;;;;;4971750;28;20043;-54
2023/10/03 00:17:55;;;;;;;37.20;15.63;;;;;;;;;;4961811;28;20488;-55
2023/10/03 00:20:23;;;;;;;36.08;14.23;;;;;;;;;;4961893;28;20066;-55
2023/10/03 00:22:50;;;;;;;34.58;14.43;;;;;;;;;;4968164;28;20051;-51
2023/10/03 00:25:19;;;;;;;31.38;13.60;;;;;;;;;;4955260;28;20081;-51
2023/10/03 00:27:46;;;;;;;32.33;13.57;;;;;;;;;;4955295;28;20074;-56
2023/10/03 00:30:13;;;;;;;32.13;13.38;;;;;;;;;;4955025;28;20090;-54
2023/10/03 00:32:42;;;;;;;33.33;13.52;;;;;;;;;;4955746;28;20055;-54
2023/10/03 00:35:09;;;;;;;32.00;12.82;;;;;;;;;;4967121;28;20046;-50
2023/10/03 00:37:37;;;;;;;29.45;13.60;;;;;;;;;;4960934;28;20635;-52
2023/10/03 00:40:16;;;;;;;33.97;14.52;;;;;;;;;;4954724;28;20102;-50
2023/10/03 00:42:46;;;;;;;31.85;12.93;;;;;;;;;;4961201;28;20509;-50
2023/10/03 00:45:19;;;;;;;33.63;13.85;;;;;;;;;;4961344;28;20482;-50
2023/10/03 00:47:48;;;;;;;30.92;12.43;;;;;;;;;;4967555;28;20047;-51
2023/10/03 00:50:16;;;;;;;25.63;11.48;;;;;;;;;;4972633;28;20042;-55
2023/10/03 00:52:45;;;;;;;36.65;12.13;;;;;;;;;;4977738;28;20043;-52
2023/10/03 00:55:13;;;;;;;28.20;11.40;;;;;;;;;;4971446;28;20046;-52
2023/10/03 00:57:40;;;;;;;30.17;12.60;;;;;;;;;;4972031;28;20059;-50
2023/10/03 01:00:15;;;;;;;30.85;12.82;;;;;;;;;;4970845;28;20054;-52
2023/10/03 01:02:48;;;;;;;30.73;11.85;;;;;;;;;;4965842;28;20051;-53
2023/10/03 01:05:18;;;;;;;27.05;12.45;;;;;;;;;;4954584;28;20495;-53
2023/10/03 01:07:46;;;;;;;29.13;12.05;;;;;;;;;;4962031;28;20055;-51
2023/10/03 01:10:18;;;;;;;32.03;12.02;;;;;;;;;;4964056;28;20043;-51
2023/10/03 01:12:46;;;;;;;26.92;10.88;;;;;;;;;;4954283;28;20137;-47
2023/10/03 01:15:16;;;;;;;28.20;11.30;;;;;;;;;;4971212;28;20051;-50
2023/10/03 01:17:44;;;;;;;28.88;11.00;;;;;;;;;;4973982;28;20057;-54
2023/10/03 01:20:17;;;;;;;29.13;12.38;;;;;;;;;;4979557;28;20042;-54
2023/10/03 01:22:46;;;;;;;26.35;10.75;;;;;;;;;;4979833;28;20050;-51
2023/10/03 01:25:14;;;;;;;30.15;11.48;;;;;;;;;;4965606;28;20110;-48
2023/10/03 01:27:41;;;;;;;29.83;11.75;;;;;;;;;;4973563;28;20475;-50
2023/10/03 01:30:08;;;;;;;26.15;12.60;;;;;;;;;;4965293;28;20051;-50
2023/10/03 01:32:38;;;;;;;28.85;11.68;;;;;;;;;;4973166;28;20047;-52
2023/10/03 01:35:09;;;;;;;30.92;11.63;;;;;;;;;;4965569;28;20071;-51
2023/10/03 01:37:35;;;;;;;;;;;;;;;;;;4962532;28;20059;-54
2023/10/03 01:40:07;;;;;;;28.85;12.07;;;;;;;;;;4954089;28;20331;-54
2023/10/03 01:42:37;;;;;;;27.70;10.30;;;;;;;;;;4958047;28;20047;-52
2023/10/03 01:45:04;;;;;;;32.08;11.88;;;;;;;;;;4972864;28;20053;-56
2023/10/03 01:47:31;;;;;;;28.50;10.85;;;;;;;;;;4973463;28;20058;-55
2023/10/03 01:49:59;;;;;;;27.40;10.30;;;;;;;;;;4972894;28;20050;-51
2023/10/03 01:52:26;;;;;;;29.38;11.30;;;;;;;;;;4972786;28;20073;-51
2023/10/03 01:54:53;;;;;;;29.95;11.48;;;;;;;;;;4973039;28;20047;-51
2023/10/03 01:57:19;;;;;;;29.33;9.90;;;;;;;;;;4973215;28;20061;-49
2023/10/03 01:59:48;;;;;;;27.27;10.43;;;;;;;;;;4973067;28;20138;-54
2023/10/03 02:02:15;;;;;;;27.55;10.07;;;;;;;;;;4964779;28;20411;-50
2023/10/03 02:04:42;;;;;;;25.58;9.70;;;;;;;;;;4968136;28;20130;-53
2023/10/03 02:07:09;;;;;;;27.42;9.60;;;;;;;;;;4954212;28;20518;-55
2023/10/03 02:09:36;;;;;;;25.95;9.43;;;;;;;;;;4968639;28;20058;-52
2023/10/03 02:12:02;;;;;;;24.95;11.07;;;;;;;;;;4960848;28;20494;-48
2023/10/03 02:14:30;;;;;;;28.90;10.43;;;;;;;;;;4964935;28;20510;-54
2023/10/03 02:16:58;;;;;;;24.17;9.52;;;;;;;;;;4972857;28;20584;-55
2023/10/03 02:19:26;;;;;;;24.55;9.70;;;;;;;;;;4971468;28;20095;-53
2023/10/03 02:21:59;;;;;;;26.60;9.77;;;;;;;;;;4953579;28;20059;-55
2023/10/03 02:24:25;;;;;;;26.92;10.38;;;;;;;;;;4964076;28;20059;-54
2023/10/03 02:26:52;;;;;;;25.25;10.35;;;;;;;;;;4966526;28;20094;-54
2023/10/03 02:29:19;;;;;;;26.65;10.95;;;;;;;;;;4971019;28;20055;-50
2023/10/03 02:31:46;;;;;;;27.08;9.85;;;;;;;;;;4959381;28;20502;-50
2023/10/03 02:34:14;;;;;;;22.23;9.35;;;;;;;;;;4957587;28;20047;-54
2023/10/03 02:36:40;;;;;;;27.27;10.50;;;;;;;;;;4966655;28;20133;-56
2023/10/03 02:39:08;;;;;;;28.33;11.25;;;;;;;;;;4983560;28;20043;-50
2023/10/03 02:41:35;;;;;;;26.42;10.38;;;;;;;;;;4972357;28;20055;-51
2023/10/03 02:44:02;;;;;;;24.92;9.90;;;;;;;;;;4972560;28;20129;-51
2023/10/03 02:46:30;;;;;;;27.27;9.63;;;;;;;;;;4956684;28;20050;-53
2023/10/03 02:48:56;;;;;;;22.75;10.48;;;;;;;;;;4957697;28;20047;-51
2023/10/03 02:51:24;;;;;;;23.88;9.57;;;;;;;;;;4968882;28;20051;-56
2023/10/03 02:53:51;;;;;;;23.00;8.98;;;;;;;;;;4959037;28;20057;-55
2023/10/03 02:56:17;;;;;;;27.35;10.07;;;;;;;;;;4972652;28;20413;-55
2023/10/03 02:58:43;;;;;;;24.77;9.65;;;;;;;;;;4967030;28;20047;-53
2023/10/03 03:01:10;;;;;;;24.20;9.25;;;;;;;;;;4960901;28;20138;-53
2023/10/03 03:03:38;;;;;;;22.58;9.52;;;;;;;;;;4964995;28;20053;-52
2023/10/03 03:06:11;;;;;;;27.23;9.75;;;;;;;;;;4970986;28;20070;-54
2023/10/03 03:08:43;;;;;;;27.60;8.90;;;;;;;;;;4953078;29;20058;-49
2023/10/03 03:11:11;;;;;;;25.80;9.60;;;;;;;;;;4969152;28;20046;-49
2023/10/03 03:13:38;;;;;;;23.13;9.25;;;;;;;;;;4964340;28;20062;-51
2023/10/03 03:16:06;;;;;;;23.27;9.02;;;;;;;;;;4964607;28;20134;-52
2023/10/03 03:18:39;;;;;;;26.67;10.07;;;;;;;;;;4953010;28;20145;-55
2023/10/03 03:21:08;;;;;;;25.83;9.73;;;;;;;;;;4961108;28;20054;-56
2023/10/03 03:23:36;;;;;;;24.27;9.32;;;;;;;;;;4971379;28;20110;-54
2023/10/03 03:26:17;;;;;;;23.95;9.25;;;;;;;;;;4956413;28;20059;-51
2023/10/03 03:28:44;;;;;;;24.38;9.85;;;;;;;;;;4969705;28;20050;-55
2023/10/03 03:31:19;;;;;;;24.13;8.15;;;;;;;;;;4966972;28;20051;-51
2023/10/03 03:33:47;;;;;;;22.23;8.52;;;;;;;;;;4969836;28;20054;-51
2023/10/03 03:36:18;;;;;;;26.20;8.68;;;;;;;;;;4974262;28;20472;-52
2023/10/03 03:38:45;;;;;;;26.13;10.20;;;;;;;;;;4969416;28;20518;-52
2023/10/03 03:41:14;;;;;;;21.02;8.32;;;;;;;;;;4974714;28;20054;-53
2023/10/03 03:43:42;;;;;;;22.95;9.95;;;;;;;;;;4968563;28;20125;-50
2023/10/03 03:46:09;;;;;;;22.77;9.25;;;;;;;;;;4976061;28;20081;-52
2023/10/03 03:48:36;;;;;;;29.98;10.65;;;;;;;;;;4967893;28;20053;-54
2023/10/03 03:51:05;;;;;;;27.27;10.25;;;;;;;;;;4975100;28;20137;-55
2023/10/03 03:53:32;;;;;;;25.40;10.32;;;;;;;;;;4959510;28;20043;-55
2023/10/03 03:55:59;;;;;;;31.02;11.57;;;;;;;;;;4967057;28;20043;-50
2023/10/03 03:58:28;;;;;;;26.13;9.20;;;;;;;;;;4975009;28;20050;-54
2023/10/03 04:00:56;;;;;;;28.45;11.18;;;;;;;;;;4974928;28;20057;-50
2023/10/03 04:03:23;;;;;;;25.98;10.13;;;;;;;;;;4956541;28;20496;-51
2023/10/03 04:05:50;;;;;;;28.83;10.80;;;;;;;;;;4967636;28;20515;-53
2023/10/03 04:08:18;;;;;;;28.40;10.70;;;;;;;;;;4963905;28;20047;-55
2023/10/03 04:10:45;;;;;;;27.27;10.57;;;;;;;;;;4955279;28;20055;-51
2023/10/03 04:13:15;;;;;;;29.85;10.85;;;;;;;;;;4968207;28;20057;-52
2023/10/03 04:15:44;;;;;;;27.00;10.38;;;;;;;;;;4975785;28;20043;-51
2023/10/03 04:18:11;;;;;;;23.00;9.52;;;;;;;;;;4966175;28;20061;-52
2023/10/03 04:20:40;;;;;;;25.80;10.65;;;;;;;;;;4959732;28;20049;-49
2023/10/03 04:23:08;;;;;;;24.02;9.63;;;;;;;;;;4974302;28;20043;-50
2023/10/03 04:25:37;;;;;;;25.35;9.77;;;;;;;;;;4966947;28;20047;-52
2023/10/03 04:28:05;;;;;;;23.85;8.63;;;;;;;;;;4974736;28;20109;-50
2023/10/03 04:30:32;;;;;;;23.27;8.50;;;;;;;;;;4966232;28;20726;-54
2023/10/03 04:33:00;;;;;;;23.63;9.48;;;;;;;;;;4974659;28;20062;-51
2023/10/03 04:35:28;;;;;;;24.95;8.75;;;;;;;;;;4962430;28;20154;-52
2023/10/03 04:37:56;;;;;;;23.50;8.90;;;;;;;;;;4961698;28;20501;-52
2023/10/03 04:40:28;;;;;;;25.17;8.93;;;;;;;;;;4974250;28;20057;-55
2023/10/03 04:42:55;;;;;;;22.10;8.98;;;;;;;;;;4966168;28;20129;-51
2023/10/03 04:45:22;;;;;;;23.65;9.70;;;;;;;;;;4958138;28;20047;-53
2023/10/03 04:47:49;;;;;;;21.63;8.48;;;;;;;;;;4974386;28;20042;-50
2023/10/03 04:50:18;;;;;;;23.80;8.90;;;;;;;;;;4956568;28;20542;-58
2023/10/03 04:52:48;;;;;;;23.88;9.25;;;;;;;;;;4954582;28;20498;-56
2023/10/03 04:55:16;;;;;;;23.15;9.20;;;;;;;;;;4954449;28;20051;-58
2023/10/03 04:57:44;;;;;;;22.98;8.45;;;;;;;;;;4954648;28;20047;-55
2023/10/03 05:00:15;;;;;;;24.73;8.98;;;;;;;;;;4954465;28;20071;-58
2023/10/03 05:02:46;;;;;;;24.77;8.38;;;;;;;;;;4954775;28;20090;-58
2023/10/03 05:05:15;;;;;;;21.10;8.48;;;;;;;;;;4954790;28;20101;-58
2023/10/03 05:07:43;;;;;;;23.00;7.63;;;;;;;;;;4954556;28;20057;-54
2023/10/03 05:10:10;;;;;;;19.30;7.68;;;;;;;;;;4954245;28;20043;-55
2023/10/03 05:12:37;;;;;;;22.52;7.85;;;;;;;;;;4954461;28;20126;-58
2023/10/03 05:15:06;;;;;;;23.00;8.82;;;;;;;;;;4954736;28;20051;-58
2023/10/03 05:17:33;;;;;;;20.30;7.32;;;;;;;;;;4966086;28;20436;-54
2023/10/03 05:19:59;;;;;;;23.17;8.32;;;;;;;;;;4973376;28;20050;-58
2023/10/03 05:22:26;;;;;;;24.63;8.38;;;;;;;;;;4973398;28;21806;-56
2023/10/03 05:24:54;;;;;;;20.60;7.53;;;;;;;;;;4973946;28;20495;-53
2023/10/03 05:27:21;;;;;;;24.63;8.82;;;;;;;;;;4955644;28;20047;-56
2023/10/03 05:29:47;;;;;;;25.08;8.80;;;;;;;;;;4954179;28;20047;-54
2023/10/03 05:32:14;;;;;;;18.92;8.38;;;;;;;;;;4953825;28;20138;-58
2023/10/03 05:34:41;;;;;;;19.63;8.13;;;;;;;;;;4954193;28;20051;-55
2023/10/03 05:37:08;;;;;;;24.65;9.32;;;;;;;;;;4961983;28;20422;-57
2023/10/03 05:39:35;;;;;;;20.20;8.27;;;;;;;;;;4966096;28;20051;-59
2023/10/03 05:42:03;;;;;;;19.58;8.13;;;;;;;;;;4957873;28;20043;-58
2023/10/03 05:44:29;;;;;;;20.90;7.53;;;;;;;;;;4954011;28;20043;-58
2023/10/03 05:46:56;;;;;;;23.55;8.38;;;;;;;;;;4953737;28;20047;-57
2023/10/03 05:49:24;;;;;;;21.85;8.30;;;;;;;;;;4953788;28;20415;-53
2023/10/03 05:51:55;;;;;;;23.00;8.85;;;;;;;;;;4959604;28;20050;-58
2023/10/03 05:54:22;;;;;;;23.27;8.13;;;;;;;;;;4955260;28;20087;-58
2023/10/03 05:56:49;;;;;;;22.20;7.93;;;;;;;;;;4953844;28;20055;-58
2023/10/03 05:59:17;;;;;;;21.77;8.30;;;;;;;;;;4955132;28;20043;-58
2023/10/03 06:01:44;;;;;;;21.90;8.23;;;;;;;;;;4964755;28;20050;-53
2023/10/03 06:04:11;;;;;;;20.17;8.50;;;;;;;;;;4956262;28;20053;-54
2023/10/03 06:06:37;;;;;;;23.38;7.82;;;;;;;;;;4953581;28;20057;-52
2023/10/03 06:09:04;;;;;;;20.52;7.68;;;;;;;;;;4961982;28;20391;-58
2023/10/03 06:11:31;;;;;;;20.83;9.60;;;;;;;;;;4961313;28;20134;-55
2023/10/03 06:13:58;;;;;;;19.50;8.15;;;;;;;;;;4960532;28;20126;-56
2023/10/03 06:16:28;;;;;;;19.25;7.57;;;;;;;;;;4972719;28;20566;-57
2023/10/03 06:18:56;;;;;;;21.98;7.85;;;;;;;;;;4958361;28;20053;-56
2023/10/03 06:21:23;;;;;;;21.50;7.93;;;;;;;;;;4953112;28;20054;-55
2023/10/03 06:23:50;;;;;;;19.15;7.60;;;;;;;;;;4961361;28;20122;-57
2023/10/03 06:26:18;;;;;;;21.38;8.27;;;;;;;;;;4969363;28;20055;-57
2023/10/03 06:28:45;;;;;;;20.15;7.10;;;;;;;;;;4968842;28;20082;-58
2023/10/03 06:31:12;;;;;;;22.23;8.30;;;;;;;;;;4991065;28;20051;-57
2023/10/03 06:33:42;;;;;;;21.00;8.07;;;;;;;;;;4967448;28;20057;-58
2023/10/03 06:36:09;;;;;;;19.88;8.77;;;;;;;;;;4961187;28;20057;-56
2023/10/03 06:38:37;;;;;;;19.23;8.20;;;;;;;;;;4953493;28;20048;-58
2023/10/03 06:41:05;;;;;;;21.13;8.40;;;;;;;;;;4953303;28;20070;-58
2023/10/03 06:43:32;;;;;;;22.42;8.52;;;;;;;;;;4959838;28;20082;-52
2023/10/03 06:45:59;;;;;;;19.85;8.38;;;;;;;;;;4963557;28;20051;-53
2023/10/03 06:48:26;;;;;;;22.85;8.98;;;;;;;;;;4969518;28;20039;-53
2023/10/03 06:50:54;;;;;;;22.15;8.20;;;;;;;;;;4964138;28;20047;-56
2023/10/03 06:53:23;;;;;;;23.83;9.25;;;;;;;;;;4985350;28;20042;-59
2023/10/03 06:55:49;;;;;;;22.17;8.93;;;;;;;;;;4953483;28;20143;-56
2023/10/03 06:58:16;;;;;;;21.48;9.02;;;;;;;;;;4962347;28;20047;-57
2023/10/03 07:00:43;;;;;;;19.55;7.95;;;;;;;;;;4967912;28;20046;-57
2023/10/03 07:03:10;;;;;;;21.50;8.40;;;;;;;;;;4967875;28;20050;-56
2023/10/03 07:05:37;;;;;;;21.02;8.85;;;;;;;;;;4960780;28;20057;-58
2023/10/03 07:08:05;;;;;;;22.50;8.98;;;;;;;;;;4961811;28;20057;-58
2023/10/03 07:10:32;;;;;;;20.67;8.77;;;;;;;;;;4964738;28;20051;-56
2023/10/03 07:12:59;;;;;;;19.77;8.43;;;;;;;;;;4961200;28;20047;-58
2023/10/03 07:15:26;;;;;;;20.63;8.20;;;;;;;;;;4958865;28;20061;-58
2023/10/03 07:17:52;;;;;;;21.92;8.52;;;;;;;;;;4975743;28;20057;-56
2023/10/03 07:20:19;;;;;;;20.70;8.23;;;;;;;;;;4975817;28;20499;-55
2023/10/03 07:22:46;;;;;;;23.50;7.72;;;;;;;;;;4975889;28;20058;-51
2023/10/03 07:25:14;;;;;;;17.05;7.45;;;;;;;;;;4975641;28;20142;-55
2023/10/03 07:27:41;;;;;;;22.63;7.93;;;;;;;;;;4971583;28;20146;-55
2023/10/03 07:30:09;;;;;;;16.15;6.82;;;;;;;;;;4967012;28;20043;-58
2023/10/03 07:32:35;;;;;;;19.38;8.00;;;;;;;;;;4969082;28;20055;-58
2023/10/03 07:35:03;;;;;;;20.65;8.10;;;;;;;;;;4970876;28;20141;-57
2023/10/03 07:37:29;;;;;;;20.63;8.18;;;;;;;;;;4969192;28;20054;-53
2023/10/03 07:39:57;;;;;;;19.90;7.55;;;;;;;;;;4967439;28;20491;-56
2023/10/03 07:42:24;;;;;;;17.92;7.35;;;;;;;;;;4975624;28;20407;-55
2023/10/03 07:44:52;;;;;;;18.98;7.93;;;;;;;;;;4975394;28;20046;-54
2023/10/03 07:47:20;;;;;;;16.60;7.07;;;;;;;;;;4975338;28;20047;-57
2023/10/03 07:49:48;;;;;;;16.85;7.05;;;;;;;;;;4971773;28;20047;-58
2023/10/03 07:52:17;;;;;;;17.85;7.25;;;;;;;;;;4967441;28;20435;-53
2023/10/03 07:54:46;;;;;;;16.95;6.65;;;;;;;;;;4981491;28;20549;-57
2023/10/03 07:57:13;;;;;;;18.33;6.90;;;;;;;;;;4974890;28;20042;-57
2023/10/03 07:59:42;;;;;;;18.92;6.72;;;;;;;;;;4973300;28;20038;-56
2023/10/03 08:02:10;;;;;;;17.00;6.97;;;;;;;;;;4970111;28;20043;-52
2023/10/03 08:04:40;;;;;;;15.48;7.13;;;;;;;;;;4975090;28;20074;-59
2023/10/03 08:07:07;;;;;;;17.52;7.60;;;;;;;;;;4974976;28;20095;-56
2023/10/03 08:09:33;;;;;;;16.70;6.53;;;;;;;;;;4973495;28;20379;-57
2023/10/03 08:12:05;;;;;;;15.35;6.55;;;;;;;;;;4968851;28;20137;-57
2023/10/03 08:14:34;;;;;;;16.80;7.53;;;;;;;;;;4967563;28;20057;-56
2023/10/03 08:17:03;;;;;;;16.58;6.68;;;;;;;;;;4962241;28;20400;-58
2023/10/03 08:19:30;;;;;;;20.87;7.77;;;;;;;;;;4970438;28;20062;-57
2023/10/03 08:21:58;;;;;;;16.65;7.55;;;;;;;;;;4968987;28;20504;-58
2023/10/03 08:24:25;;;;;;;16.73;6.78;;;;;;;;;;4966577;28;20063;-56
2023/10/03 08:26:53;;;;;;;16.42;7.32;;;;;;;;;;4964537;28;20049;-53
2023/10/03 08:29:23;;;;;;;16.45;6.80;;;;;;;;;;4977147;28;20082;-58
2023/10/03 08:31:49;;;;;;;14.65;7.20;;;;;;;;;;4976182;28;20050;-57
2023/10/03 08:34:19;;;;;;;15.40;7.30;;;;;;;;;;4966980;28;20468;-57
2023/10/03 08:36:46;;;;;;;17.92;8.18;;;;;;;;;;4960334;28;20467;-60
2023/10/03 08:39:13;;;;;;;16.77;6.40;;;;;;;;;;4966468;28;20043;-53
2023/10/03 08:41:46;;;;;;;14.20;6.80;;;;;;;;;;4981993;28;20086;-62
2023/10/03 08:44:13;;;;;;;15.05;6.38;;;;;;;;;;4969024;28;20054;-63
2023/10/03 08:46:45;;;;;;;16.08;7.05;;;;;;;;;;4974943;28;20108;-58
2023/10/03 08:49:17;;;;;;;14.90;6.28;;;;;;;;;;4967931;28;20138;-56
2023/10/03 08:51:46;;;;;;;14.10;6.50;;;;;;;;;;4962116;28;20491;-59
2023/10/03 08:54:12;;;;;;;15.15;7.43;;;;;;;;;;4985956;28;20594;-58
2023/10/03 08:56:41;;;;;;;17.45;7.47;;;;;;;;;;4968262;28;20131;-58
2023/10/03 08:59:09;;;;;;;12.77;6.13;;;;;;;;;;4976993;28;20085;-59
2023/10/03 09:01:39;;;;;;;12.20;6.60;;;;;;;;;;4984912;28;20393;-58
2023/10/03 09:04:15;;;;;;;13.05;5.68;;;;;;;;;;4987143;28;20069;-56
2023/10/03 09:06:45;;;;;;;14.82;6.30;;;;;;;;;;4967869;28;20050;-57
2023/10/03 09:09:14;;;;;;;11.35;5.47;;;;;;;;;;4968596;28;20130;-54
2023/10/03 09:11:43;;;;;;;13.95;6.38;;;;;;;;;;4986447;28;20118;-54
2023/10/03 09:14:19;;;;;;;11.83;6.27;;;;;;;;;;4985594;28;20046;-56
2023/10/03 09:16:50;;;;;;;13.90;6.00;;;;;;;;;;4965334;28;20042;-54
2023/10/03 09:19:23;;;;;;;12.55;5.82;;;;;;;;;;4975277;28;20042;-54
2023/10/03 09:21:51;;;;;;;13.52;5.88;;;;;;;;;;4967258;28;20043;-56
2023/10/03 09:24:21;;;;;;;13.20;6.18;;;;;;;;;;4975529;28;20072;-50
2023/10/03 09:26:51;;;;;;;12.77;6.07;;;;;;;;;;4978300;28;20054;-53
2023/10/03 09:29:30;;;;;;;17.13;6.95;;;;;;;;;;4970686;28;20098;-50
2023/10/03 09:31:58;;;;;;;13.43;6.68;;;;;;;;;;4960067;28;20503;-56
2023/10/03 09:34:30;;;;;;;11.93;6.45;;;;;;;;;;4976031;28;20403;-52
2023/10/03 09:36:58;;;;;;;11.73;6.63;;;;;;;;;;4976593;28;20462;-56
2023/10/03 09:39:26;;;;;;;14.38;6.57;;;;;;;;;;4980335;28;20043;-51
2023/10/03 09:41:55;;;;;;;13.77;6.72;;;;;;;;;;4989136;28;20053;-52
2023/10/03 09:44:29;;;;;;;14.27;6.10;;;;;;;;;;4966943;28;20488;-51
2023/10/03 09:47:00;;;;;;;13.40;6.22;;;;;;;;;;4980309;28;20054;-52
2023/10/03 09:49:36;;;;;;;12.40;6.38;;;;;;;;;;4978231;28;20055;-56
2023/10/03 09:52:07;;;;;;;11.70;6.20;;;;;;;;;;4958064;28;20460;-55
2023/10/03 09:54:36;;;;;;;12.65;5.60;;;;;;;;;;4965518;28;20055;-51
2023/10/03 09:57:15;;;;;;;12.02;5.82;;;;;;;;;;4965634;28;20047;-49
2023/10/03 09:59:42;;;;;;;10.60;5.55;;;;;;;;;;4961956;28;20051;-52
2023/10/03 10:02:12;;;;;;;13.57;6.32;;;;;;;;;;4973612;28;20085;-49
2023/10/03 10:04:40;;;;;;;13.40;5.90;;;;;;;;;;4978762;28;20053;-48
2023/10/03 10:07:16;;;;;;;12.32;6.38;;;;;;;;;;4953669;28;20129;-50
2023/10/03 10:09:55;;;;;;;10.75;6.03;;;;;;;;;;4966482;28;20065;-55
2023/10/03 10:12:22;;;;;;;11.75;5.68;;;;;;;;;;4964806;28;20047;-55
2023/10/03 10:15:17;;;;;;;11.80;5.22;;;;;;;;;;4968154;28;20054;-48
2023/10/03 10:17:51;;;;;;;10.45;5.57;;;;;;;;;;4963866;28;20246;-49
2023/10/03 10:20:22;;;;;;;10.85;5.82;;;;;;;;;;4966825;28;20126;-50
2023/10/03 10:23:13;;;;;;;11.70;5.93;;;;;;;;;;4984722;28;20061;-54
2023/10/03 10:25:42;;;;;;;10.48;5.70;;;;;;;;;;4978974;28;20051;-53
2023/10/03 10:28:12;;;;;;;10.73;6.15;;;;;;;;;;4956492;28;20046;-50
2023/10/03 10:30:44;;;;;;;11.50;5.28;;;;;;;;;;4980342;28;20138;-56
2023/10/03 10:33:29;;;;;;;11.02;5.68;;;;;;;;;;4987164;28;20495;-53
2023/10/03 10:35:59;;;;;;;10.95;5.40;;;;;;;;;;4986791;28;20486;-53
2023/10/03 10:38:52;;;;;;;10.18;5.55;;;;;;;;;;4974107;28;20133;-51
2023/10/03 10:41:26;;;;;;;11.50;5.93;;;;;;;;;;4974073;28;20069;-53
2023/10/03 10:44:09;;;;;;;11.20;5.70;;;;;;;;;;4968857;28;20047;-52
2023/10/03 10:46:39;;;;;;;9.63;5.57;;;;;;;;;;4963873;28;20055;-53
2023/10/03 10:49:07;;;;;;;11.05;6.25;;;;;;;;;;4980037;28;20043;-51
2023/10/03 10:51:36;;;;;;;11.45;6.28;;;;;;;;;;4980392;28;20534;-56
2023/10/03 10:54:04;;;;;;;10.18;5.35;;;;;;;;;;4961238;28;20046;-53
2023/10/03 10:56:33;;;;;;;13.20;6.10;;;;;;;;;;4980204;28;20047;-50
2023/10/03 10:59:04;;;;;;;9.68;5.05;;;;;;;;;;4965946;28;20522;-50
2023/10/03 11:01:37;;;;;;;9.75;6.32;;;;;;;;;;4956625;28;20054;-51
2023/10/03 11:04:04;;;;;;;9.30;4.70;;;;;;;;;;4956890;28;20047;-50
2023/10/03 11:06:30;;;;;;;10.40;5.78;;;;;;;;;;4957584;28;20105;-59
2023/10/03 11:08:57;;;;;;;9.82;5.72;;;;;;;;;;4973569;28;20471;-55
2023/10/03 11:11:38;;;;;;;9.93;4.97;;;;;;;;;;4975476;28;20046;-49
2023/10/03 11:14:05;;;;;;;10.30;5.65;;;;;;;;;;4969620;28;20137;-60
2023/10/03 11:16:31;;;;;;;11.13;5.50;;;;;;;;;;4969914;28;20142;-55
2023/10/03 11:19:00;;;;;;;10.98;5.22;;;;;;;;;;4984087;28;20069;-50
2023/10/03 11:21:29;;;;;;;11.73;5.88;;;;;;;;;;4979478;28;20039;-54
2023/10/03 11:24:14;;;;;;;10.40;5.50;;;;;;;;;;4968101;28;20419;-52
2023/10/03 11:26:47;;;;;;;10.15;5.28;;;;;;;;;;4970198;28;20047;-51
2023/10/03 11:29:15;;;;;;;10.13;5.43;;;;;;;;;;4975601;28;20166;-56
2023/10/03 11:31:42;;;;;;;10.43;5.50;;;;;;;;;;4976395;28;20047;-53
2023/10/03 11:34:09;;;;;;;10.60;5.38;;;;;;;;;;4979192;28;20043;-60
2023/10/03 11:36:43;;;;;;;10.00;5.68;;;;;;;;;;4965370;28;20054;-49
2023/10/03 11:39:12;;;;;;;9.48;4.97;;;;;;;;;;4979377;28;20112;-52
2023/10/03 11:41:39;;;;;;;11.05;5.50;;;;;;;;;;4961408;28;20146;-54
2023/10/03 11:44:20;;;;;;;13.38;5.65;;;;;;;;;;4984100;28;20038;-54
2023/10/03 11:46:48;;;;;;;10.80;5.57;;;;;;;;;;4976410;28;20055;-49
2023/10/03 11:49:15;;;;;;;9.38;5.18;;;;;;;;;;4955782;28;20061;-52
2023/10/03 11:51:43;;;;;;;8.55;4.70;;;;;;;;;;4970013;28;20051;-52
2023/10/03 11:54:10;;;;;;;9.55;5.20;;;;;;;;;;4979937;28;20522;-55
2023/10/03 11:56:41;;;;;;;11.05;5.75;;;;;;;;;;4975065;28;20047;-51
2023/10/03 11:59:08;;;;;;;12.77;5.38;;;;;;;;;;4958539;28;20142;-50
2023/10/03 12:01:36;;;;;;;9.75;5.20;;;;;;;;;;4973358;28;20507;-53
2023/10/03 12:04:03;;;;;;;9.10;4.90;;;;;;;;;;4985112;28;20141;-49
2023/10/03 12:06:30;;;;;;;11.40;5.32;;;;;;;;;;4964560;28;20062;-49
2023/10/03 12:08:58;;;;;;;8.18;4.60;;;;;;;;;;4974836;28;20047;-56
2023/10/03 12:11:25;;;;;;;10.07;5.30;;;;;;;;;;4980553;28;20413;-52
2023/10/03 12:13:51;;;;;;;12.10;4.82;;;;;;;;;;4980098;28;20051;-54
2023/10/03 12:16:20;;;;;;;8.88;4.50;;;;;;;;;;4971017;28;20508;-52
2023/10/03 12:18:48;;;;;;;8.35;4.65;;;;;;;;;;4973361;28;20095;-51
2023/10/03 12:21:14;;;;;;;10.32;4.65;;;;;;;;;;4965454;28;20054;-50
2023/10/03 12:23:41;;;;;;;9.20;4.45;;;;;;;;;;4978614;28;20050;-50
2023/10/03 12:26:10;;;;;;;7.95;4.28;;;;;;;;;;4961513;28;20104;-57
2023/10/03 12:28:36;;;;;;;10.00;4.63;;;;;;;;;;4955305;28;20093;-52
2023/10/03 12:31:05;;;;;;;8.80;4.40;;;;;;;;;;4955170;28;20414;-52
2023/10/03 12:33:31;;;;;;;7.95;4.63;;;;;;;;;;4954792;28;20129;-53
2023/10/03 12:36:01;;;;;;;7.95;4.25;;;;;;;;;;4955008;28;20134;-50
2023/10/03 12:38:28;;;;;;;8.68;4.40;;;;;;;;;;4955284;28;20443;-50
2023/10/03 12:40:55;;;;;;;9.43;4.32;;;;;;;;;;4954905;28;20047;-56
2023/10/03 12:43:22;;;;;;;8.32;4.40;;;;;;;;;;4954860;28;20127;-52
2023/10/03 12:45:49;;;;;;;9.77;4.43;;;;;;;;;;4968183;28;20046;-53
2023/10/03 12:48:17;;;;;;;7.68;4.05;;;;;;;;;;4965987;28;20511;-51
2023/10/03 12:50:44;;;;;;;8.55;5.15;;;;;;;;;;4961509;28;20071;-52
2023/10/03 12:53:12;;;;;;;10.57;4.95;;;;;;;;;;4954605;28;20138;-52
2023/10/03 12:55:38;;;;;;;7.40;4.25;;;;;;;;;;4958570;28;20428;-53
2023/10/03 12:58:05;;;;;;;9.80;5.50;;;;;;;;;;4965970;28;20044;-53
2023/10/03 13:00:31;;;;;;;9.30;4.40;;;;;;;;;;4957553;28;20466;-58
2023/10/03 13:03:00;;;;;;;8.25;4.15;;;;;;;;;;4958912;28;20138;-50
2023/10/03 13:05:27;;;;;;;9.60;5.40;;;;;;;;;;4954514;28;20082;-51
2023/10/03 13:07:53;;;;;;;10.75;4.53;;;;;;;;;;4954387;28;20051;-54
2023/10/03 13:10:24;;;;;;;9.57;5.28;;;;;;;;;;4955370;28;20065;-56
2023/10/03 13:12:54;;;;;;;8.40;4.45;;;;;;;;;;4973337;28;20054;-54
2023/10/03 13:15:21;;;;;;;8.63;4.60;;;;;;;;;;4964022;28;20149;-52
2023/10/03 13:17:50;;;;;;;8.25;4.93;;;;;;;;;;4954539;28;20510;-50
2023/10/03 13:20:18;;;;;;;10.27;4.30;;;;;;;;;;4955392;28;20079;-54
2023/10/03 13:22:46;;;;;;;6.55;4.15;;;;;;;;;;4961200;28;20465;-55
2023/10/03 13:25:17;;;;;;;9.23;4.90;;;;;;;;;;4962740;28;20050;-53
2023/10/03 13:27:47;;;;;;;9.20;4.68;;;;;;;;;;4966911;28;20081;-52
2023/10/03 13:30:18;;;;;;;;;;;;;;;;;;4957400;28;20047;-52
2023/10/03 13:32:45;;;;;;;9.25;4.75;;;;;;;;;;4954300;28;20267;-53
2023/10/03 13:35:13;;;;;;;8.40;4.50;;;;;;;;;;4962217;28;20540;-54
2023/10/03 13:37:40;;;;;;;8.93;4.85;;;;;;;;;;4953914;28;20051;-54
2023/10/03 13:40:11;;;;;;;9.30;4.97;;;;;;;;;;4953763;28;20047;-54
2023/10/03 13:42:38;;;;;;;9.77;4.53;;;;;;;;;;4965460;28;20050;-54
2023/10/03 13:45:07;;;;;;;11.50;5.13;;;;;;;;;;4966052;28;20053;-53
2023/10/03 13:47:33;;;;;;;9.75;4.63;;;;;;;;;;4973273;28;20082;-54
2023/10/03 13:50:00;;;;;;;6.63;4.50;;;;;;;;;;4973289;28;20050;-54
2023/10/03 13:52:27;;;;;;;8.55;4.68;;;;;;;;;;4965036;28;20472;-54
2023/10/03 13:54:59;;;;;;;11.13;4.75;;;;;;;;;;4966941;28;20046;-54
2023/10/03 13:57:26;;;;;;;9.15;4.43;;;;;;;;;;4971897;28;20050;-53
2023/10/03 13:59:53;;;;;;;10.90;4.57;;;;;;;;;;4965059;28;20065;-54
2023/10/03 14:02:22;;;;;;;8.45;4.40;;;;;;;;;;4964810;28;20506;-50
2023/10/03 14:04:48;;;;;;;9.07;4.68;;;;;;;;;;4968239;28;20106;-56
2023/10/03 14:07:15;;;;;;;8.10;4.40;;;;;;;;;;4962146;28;20066;-55
2023/10/03 14:09:42;;;;;;;7.85;4.60;;;;;;;;;;4960444;28;20074;-51
2023/10/03 14:12:09;;;;;;;9.15;4.70;;;;;;;;;;4953074;28;20054;-51
2023/10/03 14:14:36;;;;;;;12.10;5.07;;;;;;;;;;4965132;28;20391;-56
2023/10/03 14:17:02;;;;;;;7.22;4.35;;;;;;;;;;4957894;28;20408;-55
2023/10/03 14:19:34;;;;;;;11.52;4.47;;;;;;;;;;4953618;28;20051;-55
2023/10/03 14:22:03;;;;;;;9.35;4.97;;;;;;;;;;4953085;28;20062;-52
2023/10/03 14:24:30;;;;;;;9.67;5.00;;;;;;;;;;4964187;28;20078;-52
2023/10/03 14:26:56;;;;;;;8.77;4.13;;;;;;;;;;4958417;28;20054;-55
2023/10/03 14:29:23;;;;;;;8.93;4.93;;;;;;;;;;4955022;28;20418;-51
2023/10/03 14:31:50;;;;;;;10.07;4.85;;;;;;;;;;4967053;28;20055;-54
2023/10/03 14:34:16;;;;;;;8.88;4.93;;;;;;;;;;4953179;28;20047;-53
2023/10/03 14:36:45;;;;;;;8.80;4.82;;;;;;;;;;4953236;28;20411;-52
2023/10/03 14:39:12;;;;;;;12.05;6.05;;;;;;;;;;4953142;28;20055;-55